createdAt,value
2022-12-20T00:03:32.869Z,16.41
2022-12-20T00:13:34.227Z,16.30
2022-12-20T00:23:35.562Z,16.33
2022-12-20T00:33:36.873Z,16.33
2022-12-20T00:43:38.250Z,16.35
2022-12-20T00:53:39.520Z,16.31
2022-12-20T01:03:42.088Z,16.31
2022-12-20T01:13:43.389Z,16.29
2022-12-20T01:23:44.652Z,16.30
2022-12-20T01:33:45.974Z,16.31
2022-12-20T01:43:47.302Z,16.28
2022-12-20T01:53:48.584Z,16.28
2022-12-20T02:03:49.833Z,16.27
2022-12-20T02:13:51.111Z,16.30
2022-12-20T02:23:52.377Z,16.26
2022-12-20T02:33:53.645Z,16.31
2022-12-20T02:43:54.976Z,16.19
2022-12-20T02:53:56.282Z,16.26
2022-12-20T03:03:57.689Z,16.23
2022-12-20T03:13:58.975Z,16.24
2022-12-20T03:24:00.250Z,16.22
2022-12-20T03:34:01.711Z,16.25
2022-12-20T03:44:02.986Z,16.26
2022-12-20T03:54:04.275Z,16.20
2022-12-20T04:04:05.678Z,16.28
2022-12-20T04:14:06.957Z,16.28
2022-12-20T04:24:08.253Z,16.21
2022-12-20T04:34:09.559Z,16.28
2022-12-20T04:44:10.910Z,16.22
2022-12-20T04:54:12.181Z,16.22
2022-12-20T05:04:13.517Z,16.16
2022-12-20T05:14:14.852Z,16.24
2022-12-20T05:24:16.132Z,16.17
2022-12-20T05:34:17.525Z,16.27
2022-12-20T05:44:18.836Z,16.24
2022-12-20T05:54:20.099Z,16.18
2022-12-20T06:04:21.407Z,16.23
2022-12-20T06:14:22.794Z,16.18
2022-12-20T06:24:24.034Z,16.13
2022-12-20T06:34:25.322Z,16.25
2022-12-20T06:44:26.717Z,16.13
2022-12-20T06:54:29.230Z,16.23
2022-12-20T07:04:30.617Z,16.19
2022-12-20T07:14:32.161Z,16.23
2022-12-20T07:24:33.715Z,16.20
2022-12-20T07:34:35.010Z,16.23
2022-12-20T07:44:36.551Z,16.17
2022-12-20T07:54:38.432Z,16.23
2022-12-20T08:04:39.977Z,16.22
2022-12-20T08:14:41.523Z,16.26
2022-12-20T08:24:42.978Z,16.27
2022-12-20T08:34:44.606Z,16.23
2022-12-20T08:44:46.177Z,16.26
2022-12-20T08:54:47.487Z,16.25
2022-12-20T09:04:49.042Z,16.20
2022-12-20T09:14:50.391Z,16.25
2022-12-20T09:24:51.979Z,16.22
2022-12-20T09:34:53.402Z,16.23
2022-12-20T09:44:55.007Z,16.22
2022-12-20T10:15:40.476Z,16.23
2022-12-20T10:25:41.931Z,16.21
2022-12-20T10:35:50.925Z,16.19
2022-12-20T10:45:58.922Z,16.24
2022-12-20T10:56:06.875Z,16.26
2022-12-20T11:06:15.199Z,16.25
2022-12-20T11:26:45.689Z,16.18
2022-12-20T11:36:47.160Z,16.25
2022-12-20T11:46:48.639Z,16.20
2022-12-20T11:56:54.192Z,16.21
2022-12-20T12:07:02.859Z,16.21
2022-12-20T12:17:11.007Z,16.20
2022-12-20T12:27:18.890Z,16.22
2022-12-20T12:47:58.729Z,16.21
2022-12-20T12:58:00.306Z,16.20
2022-12-20T13:08:08.260Z,16.19
2022-12-20T13:18:11.350Z,16.19
2022-12-20T13:28:12.775Z,16.22
2022-12-20T14:30:20.964Z,16.16
2022-12-20T14:40:22.290Z,16.20
2022-12-20T14:50:23.569Z,16.16
2022-12-20T15:00:25.163Z,16.16
2022-12-20T15:10:26.729Z,16.18
2022-12-20T15:20:28.056Z,16.13
2022-12-20T15:30:29.440Z,16.16
2022-12-20T15:40:30.749Z,16.17
2022-12-20T15:50:32.206Z,16.15
2022-12-20T16:00:33.534Z,16.14
2022-12-20T16:10:34.979Z,16.14
2022-12-20T16:20:36.541Z,16.13
2022-12-20T16:30:37.948Z,16.12
2022-12-20T16:40:39.498Z,16.14
2022-12-20T16:50:41.042Z,16.15
2022-12-20T17:00:42.637Z,16.11
2022-12-20T17:10:44.290Z,16.12
2022-12-20T17:20:45.874Z,16.12
2022-12-20T17:30:47.473Z,16.12
2022-12-20T17:40:49.075Z,16.11
2022-12-20T18:01:19.367Z,16.11
2022-12-20T18:11:20.846Z,16.12
2022-12-20T18:21:22.407Z,16.11
2022-12-20T18:31:23.856Z,16.13
2022-12-20T18:41:25.301Z,16.09
2022-12-20T18:51:26.829Z,16.12
2022-12-20T19:01:28.491Z,16.11
2022-12-20T19:11:30.150Z,16.10
2022-12-20T19:21:31.675Z,16.10
2022-12-20T19:31:33.081Z,16.11
2022-12-20T19:41:34.596Z,16.11
2022-12-20T19:51:36.104Z,16.13
2022-12-20T20:01:37.840Z,16.09
2022-12-20T20:11:39.195Z,16.10
2022-12-20T20:21:40.550Z,16.08
2022-12-20T20:31:42.146Z,16.07
2022-12-20T20:41:43.576Z,16.12
2022-12-20T20:51:44.861Z,16.10
2022-12-20T21:01:46.199Z,16.09
2022-12-20T21:11:47.966Z,16.08
2022-12-20T21:21:49.687Z,16.09
2022-12-20T21:31:51.073Z,16.09
2022-12-20T21:41:56.939Z,16.10
2022-12-20T21:52:02.816Z,16.10
2022-12-20T22:02:04.474Z,16.06
2022-12-20T22:12:06.143Z,16.10
2022-12-20T22:22:07.768Z,16.09
2022-12-20T22:32:09.252Z,16.09
2022-12-20T22:42:10.798Z,16.06
2022-12-20T22:52:12.104Z,16.07
2022-12-20T23:02:13.690Z,16.06
2022-12-20T23:12:15.095Z,16.09
2022-12-20T23:22:16.740Z,16.09
2022-12-20T23:32:18.133Z,16.05
2022-12-20T23:42:19.645Z,16.07
2022-12-20T23:52:20.908Z,16.08
